Home > Products > Valid Products > TAF

000
FTUS44 KHGX 041120
TAFCXO
TAF
KCXO 041120Z 0412/0512 VRB03KT P6SM SKC
      TEMPO 0412/0413 MIFG
     FM041800 31009KT P6SM SKC=



000
FTUS44 KHGX 041120
TAFIAH
TAF
KIAH 041120Z 0412/0518 35004KT P6SM SKC
     FM042000 32009KT P6SM SKC
     FM051500 36006KT P6SM SKC=



000
FTUS44 KHGX 041120
TAFCLL
TAF
KCLL 041120Z 0412/0512 33005KT P6SM SKC
     FM041700 31009KT P6SM SKC=



000
FTUS44 KHGX 041120
TAFUTS
TAF
KUTS 041120Z 0412/0512 29007KT P6SM SKC=



000
FTUS44 KHGX 041120
TAFCXO
TAF
KCXO 041120Z 0412/0512 VRB03KT P6SM SKC
      TEMPO 0412/0413 MIFG
     FM041800 31009KT P6SM SKC=



000
FTUS44 KHGX 041120
TAFIAH
TAF
KIAH 041120Z 0412/0518 35004KT P6SM SKC
     FM042000 32009KT P6SM SKC
     FM051500 36006KT P6SM SKC=



000
FTUS44 KHGX 041120
TAFCLL
TAF
KCLL 041120Z 0412/0512 33005KT P6SM SKC
     FM041700 31009KT P6SM SKC=



000
FTUS44 KHGX 041120
TAFSGR
TAF
KSGR 041120Z 0412/0512 35005KT P6SM SKC
     FM041700 31010KT P6SM SKC=



000
FTUS44 KHGX 041120
TAFLBX
TAF
KLBX 041120Z 0412/0512 VRB03KT P6SM SKC
     FM041900 33010KT P6SM SKC=



000
FTUS44 KHGX 041120
TAFHOU
TAF
KHOU 041120Z 0412/0512 35004KT P6SM SKC
     FM041700 33011KT P6SM SKC=



000
FTUS44 KHGX 041120
TAFSGR
TAF
KSGR 041120Z 0412/0512 35005KT P6SM SKC
     FM041700 31010KT P6SM SKC=



000
FTUS44 KHGX 041120
TAFHOU
TAF
KHOU 041120Z 0412/0512 35004KT P6SM SKC
     FM041700 33011KT P6SM SKC=



000
FTUS44 KHGX 041120
TAFGLS
TAF
KGLS 041120Z 0412/0512 01010KT P6SM SKC
     FM041900 33009KT P6SM SKC=



000
FTUS44 KHGX 041120
TAFGLS
TAF
KGLS 041120Z 0412/0512 01010KT P6SM SKC
     FM041900 33009KT P6SM SKC=



000
FTUS44 KHGX 041120
TAFLBX
TAF
KLBX 041120Z 0412/0512 VRB03KT P6SM SKC
     FM041900 33010KT P6SM SKC=



000
FTUS44 KHGX 041120
TAFUTS
TAF
KUTS 041120Z 0412/0512 29007KT P6SM SKC=



000
FTUS44 KHGX 040932 AAA
TAFHOU
TAF AMD
KHOU 040932Z 0410/0506 35008KT P6SM SKC
     FM041700 33011KT P6SM SKC=



000
FTUS44 KHGX 040932 AAA
TAFIAH
TAF AMD
KIAH 040932Z 0410/0512 35004KT P6SM SKC
     FM042000 32008KT P6SM SKC=



000
FTUS44 KHGX 040932 AAA
TAFIAH
TAF AMD
KIAH 040932Z 0410/0512 35004KT P6SM SKC
     FM042000 32008KT P6SM SKC=



000
FTUS44 KHGX 040932 AAA
TAFHOU
TAF AMD
KHOU 040932Z 0410/0506 35008KT P6SM SKC
     FM041700 33011KT P6SM SKC=



000
FTUS44 KHGX 040520
TAFCLL
TAF
KCLL 040520Z 0406/0506 01005KT P6SM SCT100
     FM041700 31009KT P6SM SKC=



000
FTUS44 KHGX 040520
TAFCXO
TAF
KCXO 040520Z 0406/0506 VRB03KT P6SM SCT100
      TEMPO 0410/0413 4SM BR
     FM041700 31009KT P6SM SKC=



000
FTUS44 KHGX 040520
TAFLBX
TAF
KLBX 040520Z 0406/0506 VRB03KT P6SM SCT100
     FM041700 34010KT P6SM SKC=



000
FTUS44 KHGX 040520
TAFHOU
TAF
KHOU 040520Z 0406/0506 35008KT P6SM SKC
     FM041700 33011KT P6SM SKC=



000
FTUS44 KHGX 040520
TAFUTS
TAF
KUTS 040520Z 0406/0506 28007KT P6SM SCT100=



000
FTUS44 KHGX 040520
TAFGLS
TAF
KGLS 040520Z 0406/0506 36010KT P6SM SKC=



000
FTUS44 KHGX 040520
TAFIAH
TAF
KIAH 040520Z 0406/0512 34007KT P6SM SCT100=



000
FTUS44 KHGX 040520
TAFSGR
TAF
KSGR 040520Z 0406/0506 35005KT P6SM SKC
     FM041700 33010KT P6SM SKC=



000
FTUS44 KHGX 032320
TAFHOU
TAF
KHOU 032320Z 0400/0424 35008KT P6SM SCT100
     FM041700 33011KT P6SM SKC=



000
FTUS44 KHGX 032320
TAFUTS
TAF
KUTS 032320Z 0400/0424 30005KT P6SM SCT100=



000
FTUS44 KHGX 032320
TAFGLS
TAF
KGLS 032320Z 0400/0424 36010KT P6SM SKC=



000
FTUS44 KHGX 032320
TAFSGR
TAF
KSGR 032320Z 0400/0424 34008KT P6SM SCT100
     FM041700 33010KT P6SM SKC=



000
FTUS44 KHGX 032320
TAFLBX
TAF
KLBX 032320Z 0400/0424 35007KT P6SM SCT100
     FM041700 34010KT P6SM SKC=



000
FTUS44 KHGX 032320
TAFIAH
TAF
KIAH 032320Z 0400/0506 34007KT P6SM SCT100=



000
FTUS44 KHGX 032320
TAFCXO
TAF
KCXO 032320Z 0400/0424 36007KT P6SM SCT100
      TEMPO 0410/0413 4SM BR
     FM041700 31009KT P6SM SKC=



000
FTUS44 KHGX 032320
TAFGLS
TAF
KGLS 032320Z 0400/0424 36010KT P6SM SKC=



000
FTUS44 KHGX 032320
TAFCLL
TAF
KCLL 032320Z 0400/0424 01008KT P6SM SCT100
     FM041700 31009KT P6SM SKC=



000
FTUS44 KHGX 032320
TAFUTS
TAF
KUTS 032320Z 0400/0424 30005KT P6SM SCT100=



000
FTUS44 KHGX 032320
TAFCXO
TAF
KCXO 032320Z 0400/0424 36007KT P6SM SCT100
      TEMPO 0410/0413 4SM BR
     FM041700 31009KT P6SM SKC=



000
FTUS44 KHGX 032320
TAFSGR
TAF
KSGR 032320Z 0400/0424 34008KT P6SM SCT100
     FM041700 33010KT P6SM SKC=



000
FTUS44 KHGX 032320
TAFHOU
TAF
KHOU 032320Z 0400/0424 35008KT P6SM SCT100
     FM041700 33011KT P6SM SKC=



000
FTUS44 KHGX 032320
TAFIAH
TAF
KIAH 032320Z 0400/0506 34007KT P6SM SCT100=



000
FTUS44 KHGX 032320
TAFCLL
TAF
KCLL 032320Z 0400/0424 01008KT P6SM SCT100
     FM041700 31009KT P6SM SKC=



000
FTUS44 KHGX 032320
TAFLBX
TAF
KLBX 032320Z 0400/0424 35007KT P6SM SCT100
     FM041700 34010KT P6SM SKC=



000
FTUS44 KHGX 032057 AAA
TAFHOU
TAF AMD
KHOU 032057Z 0321/0418 35011KT P6SM SKC
     FM040300 36005KT P6SM SKC
     FM041200 35004KT P6SM SCT250
     FM041700 32008KT P6SM SKC=



000
FTUS44 KHGX 032057 AAA
TAFIAH
TAF AMD
KIAH 032057Z 0321/0424 33012KT P6SM SKC
     FM040300 35004KT P6SM SKC
     FM040900 00000KT P6SM FEW150 SCT250
     FM041600 31009KT P6SM SKC=



000
FTUS44 KHGX 032057 AAA
TAFHOU
TAF AMD
KHOU 032057Z 0321/0418 35011KT P6SM SKC
     FM040300 36005KT P6SM SKC
     FM041200 35004KT P6SM SCT250
     FM041700 32008KT P6SM SKC=



000
FTUS44 KHGX 032057 AAA
TAFIAH
TAF AMD
KIAH 032057Z 0321/0424 33012KT P6SM SKC
     FM040300 35004KT P6SM SKC
     FM040900 00000KT P6SM FEW150 SCT250
     FM041600 31009KT P6SM SKC=



000
FTUS44 KHGX 031720
TAFCXO
TAF
KCXO 031720Z 0318/0418 35010KT P6SM SKC
     FM040300 35003KT P6SM SKC
     FM041100 00000KT 6SM MIFG FEW150 SCT250
     FM041400 32005KT P6SM SKC=



000
FTUS44 KHGX 031720
TAFCLL
TAF
KCLL 031720Z 0318/0418 35012KT P6SM SKC
     FM040500 01004KT P6SM SKC
     FM041100 30006KT P6SM SCT150 SCT250=



000
FTUS44 KHGX 031720
TAFIAH
TAF
KIAH 031720Z 0318/0424 36012KT P6SM SKC
     FM040300 35004KT P6SM SKC
     FM040900 00000KT P6SM FEW150 SCT250
     FM041600 31009KT P6SM SKC=



000
FTUS44 KHGX 031720
TAFUTS
TAF
KUTS 031720Z 0318/0418 36008KT P6SM SKC
     FM040400 VRB03KT P6SM SKC
     FM041300 30005KT P6SM SCT150 SCT250=



000
FTUS44 KHGX 031720
TAFHOU
TAF
KHOU 031720Z 0318/0418 01014KT P6SM SKC
     FM040300 36005KT P6SM SKC
     FM041200 35004KT P6SM SCT250
     FM041700 32008KT P6SM SKC=



000
FTUS44 KHGX 031720
TAFSGR
TAF
KSGR 031720Z 0318/0418 02009KT P6SM SKC
     FM040200 36005KT P6SM SKC
     FM041200 35004KT P6SM SCT250
     FM041700 33008KT P6SM SKC=



000
FTUS44 KHGX 031720
TAFUTS
TAF
KUTS 031720Z 0318/0418 36008KT P6SM SKC
     FM040400 VRB03KT P6SM SKC
     FM041300 30005KT P6SM SCT150 SCT250=



000
FTUS44 KHGX 031720
TAFIAH
TAF
KIAH 031720Z 0318/0424 36012KT P6SM SKC
     FM040300 35004KT P6SM SKC
     FM040900 00000KT P6SM FEW150 SCT250
     FM041600 31009KT P6SM SKC=



000
FTUS44 KHGX 031720
TAFGLS
TAF
KGLS 031720Z 0318/0418 36012KT P6SM SKC=



000
FTUS44 KHGX 031720
TAFCXO
TAF
KCXO 031720Z 0318/0418 35010KT P6SM SKC
     FM040300 35003KT P6SM SKC
     FM041100 00000KT 6SM MIFG FEW150 SCT250
     FM041400 32005KT P6SM SKC=



000
FTUS44 KHGX 031720
TAFLBX
TAF
KLBX 031720Z 0318/0418 01010KT P6SM SKC
     FM040300 35004KT P6SM SKC=



000
FTUS44 KHGX 031720
TAFHOU
TAF
KHOU 031720Z 0318/0418 01014KT P6SM SKC
     FM040300 36005KT P6SM SKC
     FM041200 35004KT P6SM SCT250
     FM041700 32008KT P6SM SKC=



000
FTUS44 KHGX 031720
TAFCLL
TAF
KCLL 031720Z 0318/0418 35012KT P6SM SKC
     FM040500 01004KT P6SM SKC
     FM041100 30006KT P6SM SCT150 SCT250=



000
FTUS44 KHGX 031720
TAFLBX
TAF
KLBX 031720Z 0318/0418 01010KT P6SM SKC
     FM040300 35004KT P6SM SKC=



000
FTUS44 KHGX 031720
TAFGLS
TAF
KGLS 031720Z 0318/0418 36012KT P6SM SKC=



000
FTUS44 KHGX 031720
TAFSGR
TAF
KSGR 031720Z 0318/0418 02009KT P6SM SKC
     FM040200 36005KT P6SM SKC
     FM041200 35004KT P6SM SCT250
     FM041700 33008KT P6SM SKC=



000
FTUS44 KHGX 031600 CCA
TAFIAH
TAF COR
KIAH 031600Z 0315/0418 01013KT P6SM SKC
     FM040000 VRB04KT P6SM SKC=



000
FTUS44 KHGX 031600 CCA
TAFIAH
TAF COR
KIAH 031600Z 0315/0418 01013KT P6SM SKC
     FM040000 VRB04KT P6SM SKC=



000
FTUS44 KHGX 031507 AAA
TAFCLL
TAF AMD
KCLL 031507Z 0315/0412 02013KT P6SM SKC
     FM040500 34003KT P6SM SKC=



000
FTUS44 KHGX 031500 AAA
TAFIAH
TAF AMD
KIAH 031500Z 0315/0418 01010G21KT P6SM SKC
      TEMPO 0315/0317 OVC070
     FM040000 VRB04KT P6SM SKC=



000
FTUS44 KHGX 031500 AAA
TAFHOU
TAF AMD
KHOU 031500Z 0315/0412 01009KT P6SM SKC
     FM040100 VRB03KT P6SM SKC=



000
FTUS44 KHGX 031244 AAA
TAFGLS
TAF AMD
KGLS 031244Z 0313/0412 36013KT P6SM BKN017 BKN022 OVC040
      TEMPO 0314/0315 BKN040
     FM031500 36014G21KT P6SM FEW040 SCT090
     FM031800 36011G18KT P6SM FEW080
     FM032300 01008KT P6SM SKC=



000
FTUS44 KHGX 031244 AAA
TAFGLS
TAF AMD
KGLS 031244Z 0313/0412 36013KT P6SM BKN017 BKN022 OVC040
      TEMPO 0314/0315 BKN040
     FM031500 36014G21KT P6SM FEW040 SCT090
     FM031800 36011G18KT P6SM FEW080
     FM032300 01008KT P6SM SKC=



000
FTUS44 KHGX 031136
TAFIAH
TAF
KIAH 031136Z 0312/0418 34005KT P6SM SCT070 BKN100
     FM031400 36011KT P6SM SCT090
      TEMPO 0314/0317 OVC070
     FM040000 VRB04KT P6SM SKC=



000
FTUS44 KHGX 031136
TAFSGR
TAF
KSGR 031136Z 0312/0412 36008KT P6SM OVC080
     FM031400 36009G16KT P6SM SKC
      TEMPO 0314/0317 BKN070
     FM040100 VRB03KT P6SM SKC=



000
FTUS44 KHGX 031136
TAFUTS
TAF
KUTS 031136Z 0312/0412 36003KT P6SM FEW110
     FM031400 35009KT P6SM SKC
     FM040100 VRB03KT P6SM SKC=



000
FTUS44 KHGX 031136
TAFCXO
TAF
KCXO 031136Z 0312/0412 36005KT P6SM BKN080
     FM031500 36010KT P6SM FEW080
     FM040100 VRB03KT P6SM SKC=



000
FTUS44 KHGX 031136
TAFCLL
TAF
KCLL 031136Z 0312/0412 35005KT P6SM SKC
     FM031400 36010KT P6SM SKC
     FM040100 VRB03KT P6SM SKC=



000
FTUS44 KHGX 031136
TAFGLS
TAF
KGLS 031136Z 0312/0412 36014G24KT P6SM SCT019 OVC035
     FM031500 36014G21KT P6SM SCT035 BKN090
     FM031800 36011G18KT P6SM FEW080
     FM032300 01008KT P6SM SKC=



000
FTUS44 KHGX 031136
TAFLBX
TAF
KLBX 031136Z 0312/0412 01011KT P6SM OVC035
     FM031500 01010G17KT P6SM BKN070
     FM032000 36009KT P6SM SKC
     FM040100 VRB03KT P6SM SKC=



000
FTUS44 KHGX 031136
TAFHOU
TAF
KHOU 031136Z 0312/0412 36010KT P6SM BKN060 OVC100
     FM031400 36012KT P6SM SKC
     FM040100 VRB03KT P6SM SKC=



000
FTUS44 KHGX 030809 AAB
TAFGLS
TAF AMD
KGLS 030809Z 0308/0406 36016KT P6SM BKN025 OVC035
      TEMPO 0308/0311 OVC019
     FM031400 36012KT P6SM SKC=



000
FTUS44 KHGX 030808 AAB
TAFLBX
TAF AMD
KLBX 030808Z 0308/0406 36009KT P6SM SCT030 BKN110
      TEMPO 0308/0311 OVC029
     FM031400 01010KT P6SM SKC=



000
FTUS44 KHGX 030808 AAA
TAFGLS
TAF AMD
KGLS 030808Z 0308/0406 36016KT P6SM SCT025 OVC035
      TEMPO 0308/0311 OVC028
     FM031400 36012KT P6SM SKC=



000
FTUS44 KHGX 030531 AAA
TAFLBX
TAF AMD
KLBX 030531Z 0306/0406 36009KT P6SM SCT030 BKN110
      TEMPO 0306/0308 BKN029
     FM031400 01010KT P6SM SKC=



000
FTUS44 KHGX 030520
TAFSGR
TAF
KSGR 030520Z 0306/0406 35008KT P6SM BKN110
     FM031400 36010KT P6SM SKC=



000
FTUS44 KHGX 030520
TAFSGR
TAF
KSGR 030520Z 0306/0406 35008KT P6SM BKN110
     FM031400 36010KT P6SM SKC=



000
FTUS44 KHGX 030520
TAFCXO
TAF
KCXO 030520Z 0306/0406 35006KT P6SM OVC100
     FM031400 35009KT P6SM SKC=



000
FTUS44 KHGX 030520
TAFCLL
TAF
KCLL 030520Z 0306/0406 34009KT P6SM OVC120
     FM031400 36010KT P6SM SKC=



000
FTUS44 KHGX 030520
TAFUTS
TAF
KUTS 030520Z 0306/0406 VRB03KT P6SM SCT100
     FM031400 35006KT P6SM SKC=



000
FTUS44 KHGX 030520
TAFCXO
TAF
KCXO 030520Z 0306/0406 35006KT P6SM OVC100
     FM031400 35009KT P6SM SKC=



000
FTUS44 KHGX 030520
TAFUTS
TAF
KUTS 030520Z 0306/0406 VRB03KT P6SM SCT100
     FM031400 35006KT P6SM SKC=



000
FTUS44 KHGX 030520
TAFCLL
TAF
KCLL 030520Z 0306/0406 34009KT P6SM OVC120
     FM031400 36010KT P6SM SKC=



000
FTUS44 KHGX 030520
TAFIAH
TAF
KIAH 030520Z 0306/0412 35009KT P6SM FEW100 SCT130
     FM031400 36011KT P6SM SKC
     FM040000 VRB04KT P6SM SKC=



000
FTUS44 KHGX 030520
TAFLBX
TAF
KLBX 030520Z 0306/0406 35007KT P6SM BKN110
     FM031400 01010KT P6SM SKC=



000
FTUS44 KHGX 030520
TAFHOU
TAF
KHOU 030520Z 0306/0406 36013KT P6SM SCT035 BKN100
     FM031400 36012KT P6SM SKC=



000
FTUS44 KHGX 030520
TAFIAH
TAF
KIAH 030520Z 0306/0412 35009KT P6SM FEW100 SCT130
     FM031400 36011KT P6SM SKC
     FM040000 VRB04KT P6SM SKC=



000
FTUS44 KHGX 030520
TAFGLS
TAF
KGLS 030520Z 0306/0406 36016KT P6SM SCT025 OVC035
      TEMPO 0306/0308 BKN028
     FM031400 36012KT P6SM SKC=



000
FTUS44 KHGX 030520
TAFGLS
TAF
KGLS 030520Z 0306/0406 36016KT P6SM SCT025 OVC035
      TEMPO 0306/0308 BKN028
     FM031400 36012KT P6SM SKC=



000
FTUS44 KHGX 030520
TAFLBX
TAF
KLBX 030520Z 0306/0406 35007KT P6SM BKN110
     FM031400 01010KT P6SM SKC=



000
FTUS44 KHGX 030520
TAFHOU
TAF
KHOU 030520Z 0306/0406 36013KT P6SM SCT035 BKN100
     FM031400 36012KT P6SM SKC=



000
FTUS44 KHGX 030309 AAA
TAFLBX
TAF AMD
KLBX 030309Z 0303/0324 35007KT P6SM SCT110
     FM030600 01009KT P6SM SCT050 BKN150
     FM031400 01010KT P6SM SKC=



000
FTUS44 KHGX 030309 AAA
TAFSGR
TAF AMD
KSGR 030309Z 0303/0324 36009KT P6SM BKN090
     FM030600 01007KT P6SM SCT070 BKN120
     FM031400 36010KT P6SM SKC=



000
FTUS44 KHGX 030309 AAA
TAFSGR
TAF AMD
KSGR 030309Z 0303/0324 36009KT P6SM BKN090
     FM030600 01007KT P6SM SCT070 BKN120
     FM031400 36010KT P6SM SKC=



000
FTUS44 KHGX 030309 AAA
TAFGLS
TAF AMD
KGLS 030309Z 0303/0324 35016KT P6SM FEW019 OVC025
     FM030600 01013KT P6SM SCT050 BKN120
     FM031400 36012KT P6SM SKC=



000
FTUS44 KHGX 030308 AAA
TAFIAH
TAF AMD
KIAH 030308Z 0303/0406 35008KT P6SM FEW012 SCT100 SCT130
     FM030600 01007KT P6SM SCT070 BKN120
     FM031400 36011KT P6SM SKC
     FM040000 VRB04KT P6SM SKC=



000
FTUS44 KHGX 030308 AAA
TAFCXO
TAF AMD
KCXO 030308Z 0303/0324 34005KT P6SM SCT090
     FM030600 VRB04KT P6SM SCT070 BKN120
     FM031400 35009KT P6SM SKC=



000
FTUS44 KHGX 030308 AAA
TAFUTS
TAF AMD
KUTS 030308Z 0303/0324 36004KT P6SM BKN090
     FM030600 36003KT P6SM SCT070 BKN120
     FM031400 35006KT P6SM SKC=



000
FTUS44 KHGX 030308 AAA
TAFHOU
TAF AMD
KHOU 030308Z 0303/0324 35013KT P6SM FEW015 BKN035 BKN100
     FM030600 01010KT P6SM SCT070 BKN120
     FM031400 36012KT P6SM SKC=



000
FTUS44 KHGX 030307 AAA
TAFCLL
TAF AMD
KCLL 030307Z 0303/0324 34007KT P6SM OVC100
     FM030600 36005KT P6SM SCT070 BKN120
     FM031400 36010KT P6SM SKC=



000
FTUS44 KHGX 022320
TAFGLS
TAF
KGLS 022320Z 0300/0324 36016KT P6SM VCSH SCT015 BKN022 BKN050
     FM030300 01016KT P6SM VCSH SCT025 BKN050 BKN120
     FM030600 01013KT P6SM SCT050 BKN120
     FM031400 36012KT P6SM SKC=



000
FTUS44 KHGX 022320
TAFUTS
TAF
KUTS 022320Z 0300/0324 34007KT P6SM VCSH SCT020 OVC050
     FM030600 36003KT P6SM SCT070 BKN120
     FM031400 35006KT P6SM SKC=



000
FTUS44 KHGX 022320
TAFCXO
TAF
KCXO 022320Z 0300/0324 34007KT P6SM VCSH SCT020 OVC050
     FM030600 VRB04KT P6SM SCT070 BKN120
     FM031400 35009KT P6SM SKC=



000
FTUS44 KHGX 022320
TAFIAH
TAF
KIAH 022320Z 0300/0406 36010KT P6SM VCSH SCT025 BKN070
     FM030600 01007KT P6SM SCT070 BKN120
     FM031400 36011KT P6SM SKC
     FM040000 VRB04KT P6SM SKC=



000
FTUS44 KHGX 022320
TAFSGR
TAF
KSGR 022320Z 0300/0324 36010KT P6SM VCSH SCT020 BKN070
     FM030600 01007KT P6SM SCT070 BKN120
     FM031400 36010KT P6SM SKC=



000
FTUS44 KHGX 022320
TAFHOU
TAF
KHOU 022320Z 0300/0324 36012KT P6SM VCSH SCT020 BKN070
     FM030600 01010KT P6SM SCT070 BKN120
     FM031400 36012KT P6SM SKC=



000
FTUS44 KHGX 022320
TAFLBX
TAF
KLBX 022320Z 0300/0324 02010KT P6SM VCSH SCT020 BKN050
     FM030600 01009KT P6SM SCT050 BKN150
     FM031400 01010KT P6SM SKC=



000
FTUS44 KHGX 022320
TAFCLL
TAF
KCLL 022320Z 0300/0324 34010KT P6SM VCSH SCT030 OVC070
     FM030600 36005KT P6SM SCT070 BKN120
     FM031400 36010KT P6SM SKC=



000
FTUS44 KHGX 022320
TAFCLL
TAF
KCLL 022320Z 0300/0324 34010KT P6SM VCSH SCT030 OVC070
     FM030600 36005KT P6SM SCT070 BKN120
     FM031400 36010KT P6SM SKC=



000
FTUS44 KHGX 022320
TAFSGR
TAF
KSGR 022320Z 0300/0324 36010KT P6SM VCSH SCT020 BKN070
     FM030600 01007KT P6SM SCT070 BKN120
     FM031400 36010KT P6SM SKC=



000
FTUS44 KHGX 022320
TAFIAH
TAF
KIAH 022320Z 0300/0406 36010KT P6SM VCSH SCT025 BKN070
     FM030600 01007KT P6SM SCT070 BKN120
     FM031400 36011KT P6SM SKC
     FM040000 VRB04KT P6SM SKC=



000
FTUS44 KHGX 022320
TAFCXO
TAF
KCXO 022320Z 0300/0324 34007KT P6SM VCSH SCT020 OVC050
     FM030600 VRB04KT P6SM SCT070 BKN120
     FM031400 35009KT P6SM SKC=



000
FTUS44 KHGX 022320
TAFGLS
TAF
KGLS 022320Z 0300/0324 36016KT P6SM VCSH SCT015 BKN022 BKN050
     FM030300 01016KT P6SM VCSH SCT025 BKN050 BKN120
     FM030600 01013KT P6SM SCT050 BKN120
     FM031400 36012KT P6SM SKC=



000
FTUS44 KHGX 022320
TAFUTS
TAF
KUTS 022320Z 0300/0324 34007KT P6SM VCSH SCT020 OVC050
     FM030600 36003KT P6SM SCT070 BKN120
     FM031400 35006KT P6SM SKC=



000
FTUS44 KHGX 022320
TAFHOU
TAF
KHOU 022320Z 0300/0324 36012KT P6SM VCSH SCT020 BKN070
     FM030600 01010KT P6SM SCT070 BKN120
     FM031400 36012KT P6SM SKC=



000
FTUS44 KHGX 022320
TAFLBX
TAF
KLBX 022320Z 0300/0324 02010KT P6SM VCSH SCT020 BKN050
     FM030600 01009KT P6SM SCT050 BKN150
     FM031400 01010KT P6SM SKC=



000
FTUS44 KHGX 022050 AAD
TAFLBX
TAF AMD
KLBX 022050Z 0221/0318 01013KT P6SM BKN030 BKN060
     FM022200 36015KT P6SM BKN035 BKN060
     FM030000 36009KT P6SM BKN060
     FM030600 01009KT P6SM BKN250
     FM031400 01010KT P6SM SKC=



000
FTUS44 KHGX 022050 AAD
TAFLBX
TAF AMD
KLBX 022050Z 0221/0318 01013KT P6SM BKN030 BKN060
     FM022200 36015KT P6SM BKN035 BKN060
     FM030000 36009KT P6SM BKN060
     FM030600 01009KT P6SM BKN250
     FM031400 01010KT P6SM SKC=



000
FTUS44 KHGX 022048 AAD
TAFHOU
TAF AMD
KHOU 022048Z 0221/0318 02014KT P6SM SCT025 BKN060
     FM030100 01014KT P6SM SCT070 BKN120
     FM031400 36011KT P6SM SKC=



000
FTUS44 KHGX 022048 AAC
TAFLBX
TAF AMD
KLBX 022048Z 0221/0318 01013KT P6SM FEW030 BKN060
     FM022200 36015KT P6SM SCT015 OVC035
     FM030000 36009KT P6SM BKN050
     FM030600 01009KT P6SM BKN250
     FM031400 01010KT P6SM SKC=



000
FTUS44 KHGX 022048 AAC
TAFLBX
TAF AMD
KLBX 022048Z 0221/0318 01013KT P6SM FEW030 BKN060
     FM022200 36015KT P6SM SCT015 OVC035
     FM030000 36009KT P6SM BKN050
     FM030600 01009KT P6SM BKN250
     FM031400 01010KT P6SM SKC=



000
FTUS44 KHGX 022047 AAC
TAFIAH
TAF AMD
KIAH 022047Z 0221/0324 01013KT P6SM SCT025 BKN060
     FM030100 01007KT P6SM SCT070 BKN120
     FM031400 36011KT P6SM SKC=



000
FTUS44 KHGX 022043 AAB
TAFGLS
TAF AMD
KGLS 022043Z 0221/0318 01016KT P6SM BKN025 OVC035
     FM030000 36016KT P6SM FEW035 BKN050
     FM030400 01016KT P6SM BKN250
     FM031400 36012KT P6SM SKC=



000
FTUS44 KHGX 022040 AAC
TAFUTS
TAF AMD
KUTS 022040Z 0221/0318 35010KT P6SM BKN030 BKN070
     FM030000 VRB05KT P6SM BKN070
     FM031400 01006KT P6SM SKC=



000
FTUS44 KHGX 022006 AAA
TAFCXO
TAF AMD
KCXO 022006Z 0220/0318 36010KT P6SM BKN030 BKN060
     FM022200 36009KT P6SM BKN070
     FM030900 34005KT P6SM FEW070 BKN250
     FM031300 35008KT P6SM SKC=



000
FTUS44 KHGX 022005 AAB
TAFLBX
TAF AMD
KLBX 022005Z 0220/0318 01013KT P6SM OVC025
     FM022200 36015KT P6SM SCT015 OVC035
     FM030000 36009KT P6SM BKN050
     FM030600 01009KT P6SM BKN250
     FM031400 01010KT P6SM SKC=



000
FTUS44 KHGX 022003 AAC
TAFSGR
TAF AMD
KSGR 022003Z 0220/0318 02015KT P6SM BKN050
     FM030100 01009KT P6SM SCT070 BKN120
     FM031400 36011KT P6SM SKC=



000
FTUS44 KHGX 022002 AAC
TAFHOU
TAF AMD
KHOU 022002Z 0220/0318 02015KT P6SM SCT015 BKN045
     FM030100 01015KT P6SM SCT070 BKN120
     FM031400 36011KT P6SM SKC=



000
FTUS44 KHGX 022001 AAB
TAFIAH
TAF AMD
KIAH 022001Z 0220/0324 02010KT P6SM FEW025 BKN060
     FM022100 35013KT P6SM SCT025 OVC060
     FM030100 01007KT P6SM SCT070 BKN120
     FM031400 36011KT P6SM SKC=



000
FTUS44 KHGX 022000 AAA
TAFGLS
TAF AMD
KGLS 022000Z 0220/0318 01019KT P6SM BKN015 OVC035
     FM030000 36016KT P6SM FEW035 BKN050
     FM030400 01016KT P6SM BKN250
     FM031400 36012KT P6SM SKC=



000
FTUS44 KHGX 021959 AAA
TAFCLL
TAF AMD
KCLL 021959Z 0220/0318 35013KT P6SM BKN019 BKN060
     FM030000 35009KT P6SM BKN070
     FM031400 01009KT P6SM SKC=



000
FTUS44 KHGX 021959 AAB
TAFUTS
TAF AMD
KUTS 021959Z 0220/0318 35010KT P6SM BKN018 BKN070
     FM030000 VRB05KT P6SM BKN070
     FM031400 01006KT P6SM SKC=



000
FTUS44 KHGX 021858 AAB
TAFSGR
TAF AMD
KSGR 021858Z 0219/0318 02016KT P6SM FEW020 OVC045
     FM022000 35015KT P6SM BKN050
     FM030100 01009KT P6SM SCT070 BKN120
     FM031400 36011KT P6SM SKC=



000
FTUS44 KHGX 021857 AAA
TAFLBX
TAF AMD
KLBX 021857Z 0219/0318 01013KT P6SM SCT011 OVC025
     FM022000 36015KT P6SM SCT015 OVC035
     FM030000 36009KT P6SM BKN050
     FM030600 01009KT P6SM BKN250
     FM031400 01010KT P6SM SKC=



000
FTUS44 KHGX 021857 AAA
TAFLBX
TAF AMD
KLBX 021857Z 0219/0318 01013KT P6SM SCT011 OVC025
     FM022000 36015KT P6SM SCT015 OVC035
     FM030000 36009KT P6SM BKN050
     FM030600 01009KT P6SM BKN250
     FM031400 01010KT P6SM SKC=



000
FTUS44 KHGX 021850 AAA
TAFUTS
TAF AMD
KUTS 021850Z 0219/0318 35010KT P6SM BKN025 BKN070
     FM030000 VRB05KT P6SM BKN070
     FM031400 01006KT P6SM SKC=



000
FTUS44 KHGX 021849 AAB
TAFHOU
TAF AMD
KHOU 021849Z 0219/0318 03015KT P6SM SCT015 OVC035
     FM022000 35015KT P6SM SCT025 OVC050
     FM030100 01015KT P6SM SCT070 BKN120
     FM031400 36011KT P6SM SKC=



000
FTUS44 KHGX 021804 AAA
TAFHOU
TAF AMD
KHOU 021804Z 0218/0318 35017KT P6SM SCT015 OVC025
     FM022000 35015KT P6SM SCT025 OVC050
     FM030100 01015KT P6SM SCT070 BKN120
     FM031400 36011KT P6SM SKC=



000
FTUS44 KHGX 021804 AAA
TAFIAH
TAF AMD
KIAH 021804Z 0218/0324 01010KT P6SM -RA SCT015 OVC040
     FM022000 35013KT P6SM SCT025 OVC060
     FM030100 01007KT P6SM SCT070 BKN120
     FM031400 36011KT P6SM SKC=



000
FTUS44 KHGX 021804 AAA
TAFHOU
TAF AMD
KHOU 021804Z 0218/0318 35017KT P6SM SCT015 OVC025
     FM022000 35015KT P6SM SCT025 OVC050
     FM030100 01015KT P6SM SCT070 BKN120
     FM031400 36011KT P6SM SKC=



000
FTUS44 KHGX 021804 AAA
TAFIAH
TAF AMD
KIAH 021804Z 0218/0324 01010KT P6SM -RA SCT015 OVC040
     FM022000 35013KT P6SM SCT025 OVC060
     FM030100 01007KT P6SM SCT070 BKN120
     FM031400 36011KT P6SM SKC=



000
FTUS44 KHGX 021741 AAA
TAFSGR
TAF AMD
KSGR 021741Z 0218/0318 02016KT P6SM FEW020 OVC030
     FM022000 35015KT P6SM BKN050
     FM030100 01009KT P6SM SCT070 BKN120
     FM031400 36011KT P6SM SKC=



000
FTUS44 KHGX 021731 CCB
TAFGLS
TAF COR
KGLS 021731Z 0218/0318 36017G27KT 3SM -RA BR BKN007 OVC015
     FM022000 01017KT P6SM SCT015 OVC035
     FM030000 36016KT P6SM FEW035 BKN050
     FM030400 01016KT P6SM BKN250
     FM031400 36012KT P6SM SKC=



000
FTUS44 KHGX 021722 CCA
TAFCLL
TAF COR
KCLL 021722Z 0218/0318 35013KT P6SM BKN025 BKN060
     FM030000 35009KT P6SM BKN070
     FM031400 01009KT P6SM SKC=



000
FTUS44 KHGX 021722 CCA
TAFCLL
TAF COR
KCLL 021722Z 0218/0318 35013KT P6SM BKN025 BKN060
     FM030000 35009KT P6SM BKN070
     FM031400 01009KT P6SM SKC=



000
FTUS44 KHGX 021721 CCA
TAFLBX
TAF COR
KLBX 021721Z 0218/0318 36016KT P6SM BKN011 OVC025
     FM022000 36015KT P6SM SCT015 OVC035
     FM030000 36009KT P6SM BKN050
     FM030600 01009KT P6SM BKN250
     FM031400 01010KT P6SM SKC=



000
FTUS44 KHGX 021721 CCA
TAFCXO
TAF COR
KCXO 021721Z 0218/0318 01010KT P6SM OVC035
     FM022000 34010KT P6SM BKN060
     FM030900 34005KT P6SM FEW060 BKN250
     FM031300 35008KT P6SM SKC=



000
FTUS44 KHGX 021720 CCA
TAFGLS
TAF COR
KGLS 021720Z 0217/0318 36017G27KT P6SM BKN007 OVC015
     FM022000 01017KT P6SM SCT015 OVC035
     FM030000 36016KT P6SM FEW035 BKN050
     FM030400 01016KT P6SM BKN250=



000
FTUS44 KHGX 021720
TAFGLS
TAF
KGLS 021720Z 0218/0318 36019KT P6SM BKN009 OVC015
     FM022000 01017KT P6SM SCT015 OVC035
     FM030000 36016KT P6SM FEW035 BKN050
     FM030400 01016KT P6SM BKN250
     FM031400 36012KT P6SM SKC=



000
FTUS44 KHGX 021720
TAFIAH
TAF
KIAH 021720Z 0218/0324 36015KT P6SM -RA BKN015 OVC050
     FM022000 35013KT P6SM SCT025 OVC060
     FM030100 01007KT P6SM SCT070 BKN120
     FM031400 36011KT P6SM SKC=



000
FTUS44 KHGX 021720
TAFSGR
TAF
KSGR 021720Z 0218/0318 36016KT P6SM VCSH OVC015
     FM022000 35015KT P6SM BKN050
     FM030100 01009KT P6SM SCT070 BKN120
     FM031400 36011KT P6SM SKC=



000
FTUS44 KHGX 021720
TAFUTS
TAF
KUTS 021720Z 0218/0318 35010KT P6SM SCT025 OVC040
     FM030000 VRB05KT P6SM BKN070
     FM031400 01006KT P6SM SKC=



000
FTUS44 KHGX 021720
TAFLBX
TAF
KLBX 021720Z 0218/0318 36016KT P6SM BKN008 OVC025
     FM022000 36015KT P6SM SCT015 OVC035
     FM030000 36009KT P6SM BKN050
     FM030600 01009KT P6SM BKN250
     FM031400 01010KT P6SM SKC=



000
FTUS44 KHGX 021720
TAFHOU
TAF
KHOU 021720Z 0218/0318 35016KT P6SM VCSH BKN015 OVC025
     FM022000 35015KT P6SM SCT025 OVC050
     FM030100 01015KT P6SM SCT070 BKN120
     FM031400 36011KT P6SM SKC=



000
FTUS44 KHGX 021720
TAFCLL
TAF
KCLL 021720Z 0218/0318 35014KT P6SM SCT025 OVC050
     FM030000 35009KT P6SM BKN070
     FM031400 01009KT P6SM SKC=



000
FTUS44 KHGX 021720
TAFCXO
TAF
KCXO 021720Z 0218/0318 35013KT P6SM OVC035
     FM022000 34010KT P6SM BKN060
     FM030900 34005KT P6SM FEW060 BKN250
     FM031300 35008KT P6SM SKC=



000
FTUS44 KHGX 021718 AAE
TAFGLS
TAF AMD
KGLS 021718Z 0217/0312 36017G27KT P6SM BKN007 BKN015 OVC035
     FM022000 01013KT P6SM BKN050
     FM030000 36014KT P6SM BKN100=



000
FTUS44 KHGX 021648 AAF
TAFIAH
TAF AMD
KIAH 021648Z 0217/0318 35018KT P6SM -RA OVC015
     FM022000 35013KT P6SM BKN035 OVC050
     FM030100 01007KT P6SM BKN100
     FM031200 36010KT P6SM FEW250=



000
FTUS44 KHGX 021647 AAD
TAFCXO
TAF AMD
KCXO 021647Z 0217/0312 35014KT P6SM VCSH OVC035
     FM022000 34010KT P6SM BKN050
     FM030000 34005KT P6SM SCT250=



000
FTUS44 KHGX 021647 AAD
TAFCXO
TAF AMD
KCXO 021647Z 0217/0312 35014KT P6SM VCSH OVC035
     FM022000 34010KT P6SM BKN050
     FM030000 34005KT P6SM SCT250=



000
FTUS44 KHGX 021635 AAD
TAFHOU
TAF AMD
KHOU 021635Z 0217/0312 36019KT P6SM VCSH FEW008 OVC012
     FM022000 35015KT P6SM BKN050
     FM030000 35012KT P6SM BKN100=



000
FTUS44 KHGX 021623 AAD
TAFGLS
TAF AMD
KGLS 021623Z 0216/0312 36017KT P6SM BKN007 BKN015 OVC035
     FM022000 01013KT P6SM BKN050
     FM030000 36014KT P6SM BKN100=



000
FTUS44 KHGX 021613 AAC
TAFCXO
TAF AMD
KCXO 021613Z 0216/0312 35014KT P6SM VCSH OVC025
      TEMPO 0216/0217 VRB15KT 5SM TSRA SCT025 OVC035CB
     FM021700 34012G20KT P6SM BKN018 OVC050
     FM022000 34010KT P6SM BKN050
     FM030000 34005KT P6SM SCT250=



000
FTUS44 KHGX 021613 AAC
TAFCXO
TAF AMD
KCXO 021613Z 0216/0312 35014KT P6SM VCSH OVC025
      TEMPO 0216/0217 VRB15KT 5SM TSRA SCT025 OVC035CB
     FM021700 34012G20KT P6SM BKN018 OVC050
     FM022000 34010KT P6SM BKN050
     FM030000 34005KT P6SM SCT250=



000
FTUS44 KHGX 021609 AAD
TAFCLL
TAF AMD
KCLL 021609Z 0216/0312 35014KT P6SM VCSH OVC050
     FM021900 36012KT P6SM BKN050
     FM030000 35008KT P6SM SCT250=



000
FTUS44 KHGX 021609 AAC
TAFGLS
TAF AMD
KGLS 021609Z 0216/0312 36016KT P6SM FEW009 BKN015 OVC035
     FM022000 01013KT P6SM BKN050
     FM030000 36014KT P6SM BKN100=



000
FTUS44 KHGX 021609 AAC
TAFGLS
TAF AMD
KGLS 021609Z 0216/0312 36016KT P6SM FEW009 BKN015 OVC035
     FM022000 01013KT P6SM BKN050
     FM030000 36014KT P6SM BKN100=



000
FTUS44 KHGX 021608 AAE
TAFIAH
TAF AMD
KIAH 021608Z 0216/0318 35018KT P6SM OVC015
     FM021700 36015KT P6SM VCSH BKN020 OVC050
     FM022000 35013KT P6SM BKN050
     FM030100 01007KT P6SM BKN100
     FM031200 36010KT P6SM FEW250=



000
FTUS44 KHGX 021515 AAE
TAFSGR
TAF AMD
KSGR 021515Z 0215/0312 36016KT P6SM OVC012
     FM022000 35015KT P6SM BKN050
     FM030000 35010KT P6SM SCT250=



000
FTUS44 KHGX 021510 AAB
TAFGLS
TAF AMD
KGLS 021510Z 0215/0312 01012KT P6SM -RA BKN009 OVC025
     FM021700 36015G25KT P6SM BKN018 OVC050
     FM022000 01013KT P6SM BKN050
     FM030000 36014KT P6SM BKN100=



000
FTUS44 KHGX 021506 AAC
TAFLBX
TAF AMD
KLBX 021506Z 0215/0312 35014KT 6SM -RA BR BKN007 OVC015
     FM021700 36012G20KT P6SM VCSH BKN035 OVC050
     FM022000 35015KT P6SM BKN050
     FM030000 36008KT P6SM BKN100=



000
FTUS44 KHGX 021505 AAD
TAFSGR
TAF AMD
KSGR 021505Z 0215/0312 36015KT P6SM OVC009
     FM021600 36014KT P6SM BKN015 OVC025
     FM022000 35015KT P6SM BKN050
     FM030000 35010KT P6SM SCT250=



000
FTUS44 KHGX 021504 AAC
TAFHOU
TAF AMD
KHOU 021504Z 0215/0312 36015KT P6SM VCSH BKN008 OVC012
     FM021600 36014KT P6SM BKN015 OVC025
     FM022000 35015KT P6SM BKN050
     FM030000 35012KT P6SM BKN100=



000
FTUS44 KHGX 021504 AAD
TAFIAH
TAF AMD
KIAH 021504Z 0215/0318 35014KT P6SM -RA OVC010
     FM021700 36012G20KT P6SM VCSH BKN020 OVC050
     FM022000 35013KT P6SM BKN050
     FM030100 01007KT P6SM BKN100
     FM031200 36010KT P6SM FEW250=



000
FTUS44 KHGX 021504 AAD
TAFIAH
TAF AMD
KIAH 021504Z 0215/0318 35014KT P6SM -RA OVC010
     FM021700 36012G20KT P6SM VCSH BKN020 OVC050
     FM022000 35013KT P6SM BKN050
     FM030100 01007KT P6SM BKN100
     FM031200 36010KT P6SM FEW250=



000
FTUS44 KHGX 021504 AAC
TAFHOU
TAF AMD
KHOU 021504Z 0215/0312 36015KT P6SM VCSH BKN008 OVC012
     FM021600 36014KT P6SM BKN015 OVC025
     FM022000 35015KT P6SM BKN050
     FM030000 35012KT P6SM BKN100=



000
FTUS44 KHGX 021503 AAB
TAFCXO
TAF AMD
KCXO 021503Z 0215/0312 35014KT P6SM VCSH OVC025
     FM021700 34012G20KT P6SM BKN018 OVC050
     FM022000 34010KT P6SM BKN050
     FM030000 34005KT P6SM SCT250=



000
FTUS44 KHGX 021503 AAB
TAFCXO
TAF AMD
KCXO 021503Z 0215/0312 35014KT P6SM VCSH OVC025
     FM021700 34012G20KT P6SM BKN018 OVC050
     FM022000 34010KT P6SM BKN050
     FM030000 34005KT P6SM SCT250=



000
FTUS44 KHGX 021502 AAC
TAFCLL
TAF AMD
KCLL 021502Z 0215/0312 01014KT P6SM VCSH OVC035
     FM021900 36012KT P6SM BKN050
     FM030000 35008KT P6SM SCT250=



000
FTUS44 KHGX 021440 AAB
TAFUTS
TAF AMD
KUTS 021440Z 0215/0312 35011KT P6SM SCT025 OVC035
     FM021900 36012KT P6SM BKN050
     FM030000 VRB03KT P6SM SCT250=



000
FTUS44 KHGX 021436 AAC
TAFIAH
TAF AMD
KIAH 021436Z 0215/0318 35014KT 4SM -RA OVC010
     FM021600 36012G20KT P6SM VCSH BKN020 OVC050
     FM022000 35013KT P6SM BKN050
     FM030100 01007KT P6SM BKN100
     FM031200 36010KT P6SM FEW250=



000
FTUS44 KHGX 021421 AAB
TAFHOU
TAF AMD
KHOU 021421Z 0214/0312 36014KT P6SM VCSH BKN006 OVC012
     FM021600 36014KT P6SM BKN025 OVC050
     FM022000 35015KT P6SM BKN050
     FM030000 35012KT P6SM BKN100=



000
FTUS44 KHGX 021404 AAC
TAFSGR
TAF AMD
KSGR 021404Z 0214/0312 34010KT 6SM -RA OVC007
      TEMPO 0214/0215 35014G24KT OVC005
     FM021600 36012G20KT P6SM VCSH BKN025 OVC050
     FM022000 35015KT P6SM BKN050
     FM030000 35010KT P6SM SCT250=



000
FTUS44 KHGX 021403 AAB
TAFCLL
TAF AMD
KCLL 021403Z 0214/0312 35014KT P6SM VCSH OVC035
     FM021900 36012KT P6SM BKN050
     FM030000 35008KT P6SM SCT250=



000
FTUS44 KHGX 021358 AAB
TAFSGR
TAF AMD
KSGR 021358Z 0214/0312 34010KT 5SM -RA OVC005
      TEMPO 0214/0215 2SM RA OVC004
     FM021600 36012G20KT P6SM VCSH BKN025 OVC050
     FM022000 35015KT P6SM BKN050
     FM030000 35010KT P6SM SCT250=



000
FTUS44 KHGX 021354 AAB
TAFLBX
TAF AMD
KLBX 021354Z 0214/0312 36007KT 4SM -RA BR BKN004 OVC015
     FM021600 36012G20KT P6SM VCSH BKN035 OVC050
     FM022000 35015KT P6SM BKN050
     FM030000 36008KT P6SM BKN100=



000
FTUS44 KHGX 021340 AAB
TAFIAH
TAF AMD
KIAH 021340Z 0214/0318 35012KT 4SM -RA BKN007 OVC012
     FM021600 36012G20KT P6SM VCSH BKN020 OVC050
     FM022000 35013KT P6SM BKN050
     FM030100 01007KT P6SM BKN100
     FM031200 36010KT P6SM FEW250=



000
FTUS44 KHGX 021340 AAB
TAFIAH
TAF AMD
KIAH 021340Z 0214/0318 35012KT 4SM -RA BKN007 OVC012
     FM021600 36012G20KT P6SM VCSH BKN020 OVC050
     FM022000 35013KT P6SM BKN050
     FM030100 01007KT P6SM BKN100
     FM031200 36010KT P6SM FEW250=



000
FTUS44 KHGX 021333 AAA
TAFLBX
TAF AMD
KLBX 021333Z 0214/0312 36007KT P6SM VCSH BKN009 OVC015
     FM021600 36012G20KT P6SM VCSH BKN035 OVC050
     FM022000 35015KT P6SM BKN050
     FM030000 36008KT P6SM BKN100=



000
FTUS44 KHGX 021333 AAA
TAFLBX
TAF AMD
KLBX 021333Z 0214/0312 36007KT P6SM VCSH BKN009 OVC015
     FM021600 36012G20KT P6SM VCSH BKN035 OVC050
     FM022000 35015KT P6SM BKN050
     FM030000 36008KT P6SM BKN100=



000
FTUS44 KHGX 021326 AAA
TAFCXO
TAF AMD
KCXO 021326Z 0213/0312 35012KT P6SM VCSH OVC015
     FM021600 34012G20KT P6SM VCSH BKN018 OVC050
     FM022000 34010KT P6SM BKN050
     FM030000 34005KT P6SM SCT250=



000
FTUS44 KHGX 021326 AAA
TAFCXO
TAF AMD
KCXO 021326Z 0213/0312 35012KT P6SM VCSH OVC015
     FM021600 34012G20KT P6SM VCSH BKN018 OVC050
     FM022000 34010KT P6SM BKN050
     FM030000 34005KT P6SM SCT250=



000
FTUS44 KHGX 021324 AAA
TAFCLL
TAF AMD
KCLL 021324Z 0213/0312 35015KT P6SM -RA OVC035
     FM021400 36014G23KT P6SM VCSH BKN018 OVC050
     FM021900 36012KT P6SM BKN050
     FM030000 35008KT P6SM SCT250=



000
FTUS44 KHGX 021323 AAA
TAFUTS
TAF AMD
KUTS 021323Z 0213/0312 34009KT P6SM -RA BKN025 OVC045
     FM021500 36012G21KT P6SM VCSH BKN018 OVC050
     FM021900 36012KT P6SM BKN050
     FM030000 VRB03KT P6SM SCT250=



000
FTUS44 KHGX 021322 AAA
TAFGLS
TAF AMD
KGLS 021322Z 0213/0312 01012KT P6SM VCTS SCT010CB OVC025
      TEMPO 0213/0214 VRB15G25KT 3SM TSRA BR BKN010CB
     FM021600 36015G25KT P6SM VCSH BKN018 OVC050
     FM022000 01013KT P6SM BKN050
     FM030000 36014KT P6SM BKN100=



000
FTUS44 KHGX 021321 AAA
TAFHOU
TAF AMD
KHOU 021321Z 0213/0312 01011KT P6SM VCSH BKN008 OVC012
     FM021600 36012G20KT P6SM BKN025 OVC050
     FM022000 35015KT P6SM BKN050
     FM030000 35012KT P6SM BKN100=



000
FTUS44 KHGX 021321 AAA
TAFIAH
TAF AMD
KIAH 021321Z 0213/0318 35012KT P6SM VCSH BKN005 OVC012
     FM021600 36012G20KT P6SM VCSH BKN020 OVC050
     FM022000 35013KT P6SM BKN050
     FM030100 01007KT P6SM BKN100
     FM031200 36010KT P6SM FEW250=



000
FTUS44 KHGX 021320 AAA
TAFSGR
TAF AMD
KSGR 021320Z 0213/0312 34010KT 5SM -RA OVC005
     FM021600 36012G20KT P6SM VCSH BKN025 OVC050
     FM022000 35015KT P6SM BKN050
     FM030000 35010KT P6SM SCT250=



000
FTUS44 KHGX 021120
TAFIAH
TAF
KIAH 021120Z 0212/0318 02005KT P6SM VCSH BKN007 OVC016
     FM021500 36012G20KT P6SM VCSH BKN020 OVC050
     FM022000 35013KT P6SM BKN050
     FM030100 01007KT P6SM BKN100
     FM031200 36010KT P6SM FEW250=



000
FTUS44 KHGX 021120
TAFCLL
TAF
KCLL 021120Z 0212/0312 34009KT P6SM -RA OVC027
     FM021400 36014G23KT P6SM VCSH BKN018 OVC050
     FM021900 36012KT P6SM BKN050
     FM030000 35008KT P6SM SCT250=



000
FTUS44 KHGX 021120
TAFUTS
TAF
KUTS 021120Z 0212/0312 VRB04KT P6SM VCTS BKN022CB OVC045
      TEMPO 0212/0213 VRB10G20KT 4SM TSRA BR BKN015CB
     FM021400 36012G21KT P6SM VCSH BKN018 OVC050
     FM021900 36012KT P6SM BKN050
     FM030000 VRB03KT P6SM SCT250=



000
FTUS44 KHGX 021120
TAFLBX
TAF
KLBX 021120Z 0212/0312 06006KT P6SM VCSH FEW024 OVC035
     FM021600 36012G20KT P6SM VCSH BKN035 OVC050
     FM022000 35015KT P6SM BKN050
     FM030000 36008KT P6SM BKN100=



000
FTUS44 KHGX 021120
TAFGLS
TAF
KGLS 021120Z 0212/0312 01008KT P6SM VCTS BKN027CB OVC040
      TEMPO 0212/0214 VRB15G25KT 1SM +TSRA BR BKN015CB
     FM021600 36015G25KT P6SM VCSH BKN018 OVC050
     FM022000 01013KT P6SM BKN050
     FM030000 36014KT P6SM BKN100=



000
FTUS44 KHGX 021120
TAFSGR
TAF
KSGR 021120Z 0212/0312 34004KT P6SM VCSH OVC025
      TEMPO 0212/0213 4SM SHRA BKN015
     FM021600 36012G20KT P6SM VCSH BKN025 OVC050
     FM022000 35015KT P6SM BKN050
     FM030000 35010KT P6SM SCT250=



000
FTUS44 KHGX 021120
TAFHOU
TAF
KHOU 021120Z 0212/0312 04004KT P6SM VCSH BKN012 OVC026
      TEMPO 0212/0215 4SM SHRA BR BKN015
     FM021600 36012G20KT P6SM BKN025 OVC050
     FM022000 35015KT P6SM BKN050
     FM030000 35012KT P6SM BKN100=



000
FTUS44 KHGX 021120
TAFCXO
TAF
KCXO 021120Z 0212/0312 35005KT P6SM VCSH OVC027
     FM021600 34012G20KT P6SM VCSH BKN018 OVC050
     FM022000 34010KT P6SM BKN050
     FM030000 34005KT P6SM SCT250=



000
FTUS44 KHGX 021055 AAB
TAFLBX
TAF AMD
KLBX 021055Z 0211/0306 06006KT P6SM VCSH FEW009 SCT024 OVC035
     FM021600 36012G20KT P6SM VCSH BKN018 OVC050
     FM022000 35015KT P6SM BKN050
     FM030000 36008KT P6SM BKN100=



000
FTUS44 KHGX 020957 AAE
TAFCXO
TAF AMD
KCXO 020957Z 0210/0306 36007KT P6SM FEW014 OVC030
     FM021600 34012G20KT P6SM VCSH BKN018 OVC050
     FM022000 34010KT P6SM BKN050
     FM030000 34005KT P6SM SCT250=



000
FTUS44 KHGX 020948 AAA
TAFLBX
TAF AMD
KLBX 020948Z 0210/0306 10008KT P6SM VCTS OVC025CB
      TEMPO 0210/0212 VRB10G20KT 4SM +TSRA BR BKN005 OVC015CB
     FM021600 36012G20KT P6SM VCSH BKN018 OVC050
     FM022000 35015KT P6SM BKN050
     FM030000 36008KT P6SM BKN100=



000
FTUS44 KHGX 020945 AAB
TAFGLS
TAF AMD
KGLS 020945Z 0210/0306 05011KT P6SM -RA VCTS BKN025CB OVC035
      TEMPO 0210/0213 VRB15G25KT 1SM +TSRA BR BKN015CB
     FM021600 36015G25KT P6SM VCSH BKN018 OVC050
     FM022000 01013KT P6SM BKN050
     FM030000 36014KT P6SM BKN100=



000
FTUS44 KHGX 020906 AAD
TAFCXO
TAF AMD
KCXO 020906Z 0209/0306 VRB05KT P6SM -RA VCTS SCT025CB OVC035
      TEMPO 0209/0211 BKN005CB
     FM021600 34012G20KT P6SM VCSH BKN018 OVC050
     FM022000 34010KT P6SM BKN050
     FM030000 34005KT P6SM SCT250=



000
FTUS44 KHGX 020856 AAA
TAFSGR
TAF AMD
KSGR 020856Z 0209/0306 07005KT P6SM VCTS OVC021CB
      TEMPO 0209/0213 VRB10G20KT 4SM TSRA BR BKN015CB
     FM021600 36012G20KT P6SM VCSH BKN018 OVC050
     FM022000 35015KT P6SM BKN050
     FM030000 35010KT P6SM SCT250=



000
FTUS44 KHGX 020855 AAA
TAFHOU
TAF AMD
KHOU 020855Z 0209/0306 06005KT 6SM -RA BR VCTS BKN013 OVC020CB
      TEMPO 0209/0213 VRB10G20KT 3SM TSRA BR BKN015CB
     FM021600 36012G20KT P6SM VCSH BKN018 OVC050
     FM022000 35015KT P6SM BKN050
     FM030000 35012KT P6SM BKN100=



000
FTUS44 KHGX 020854 AAC
TAFCXO
TAF AMD
KCXO 020854Z 0209/0306 00000KT P6SM -RA VCTS SCT025CB OVC035
     FM021600 34012G20KT P6SM VCSH BKN018 OVC050
     FM022000 34010KT P6SM BKN050
     FM030000 34005KT P6SM SCT250=



000
FTUS44 KHGX 020854 AAB
TAFUTS
TAF AMD
KUTS 020854Z 0209/0306 VRB06KT P6SM -RA VCTS OVC021CB
      TEMPO 0209/0213 VRB10G20KT 4SM TSRA BR BKN015CB
     FM021300 36012G21KT P6SM VCSH BKN018 OVC050
     FM021900 36012KT P6SM BKN050
     FM030000 VRB03KT P6SM SCT250=



000
FTUS44 KHGX 020854 AAA
TAFIAH
TAF AMD
KIAH 020854Z 0209/0312 04007KT P6SM VCTS BKN008 OVC019CB
     FM021600 36012G20KT P6SM VCSH BKN018 OVC050
     FM022000 35013KT P6SM BKN050
     FM030100 01007KT P6SM BKN100=



000
FTUS44 KHGX 020758 AAB
TAFCXO
TAF AMD
KCXO 020758Z 0208/0306 13006KT P6SM VCTS OVC018CB
      TEMPO 0208/0209 VRB15G25KT 2SM +TSRA BR BKN008CB
     FM021600 34012G20KT P6SM VCSH BKN018 OVC050
     FM022000 34010KT P6SM BKN050
     FM030000 34005KT P6SM SCT250=



000
FTUS44 KHGX 020712 AAA
TAFGLS
TAF AMD
KGLS 020712Z 0207/0306 05011KT P6SM -RA VCTS BKN030CB OVC035
     FM021000 02012KT P6SM VCTS SCT008CB OVC015
     FM021600 36015G25KT P6SM VCSH BKN018 OVC050
     FM022000 01013KT P6SM BKN050
     FM030000 36014KT P6SM BKN100=



000
FTUS44 KHGX 020712 AAA
TAFCXO
TAF AMD
KCXO 020712Z 0207/0306 13006KT P6SM VCTS OVC018CB
      TEMPO 0207/0209 VRB15G25KT 4SM TSRA BR BKN007CB
     FM021600 34012G20KT P6SM VCSH BKN018 OVC050
     FM022000 34010KT P6SM BKN050
     FM030000 34005KT P6SM SCT250=



000
FTUS44 KHGX 020712 AAA
TAFGLS
TAF AMD
KGLS 020712Z 0207/0306 05011KT P6SM -RA VCTS BKN030CB OVC035
     FM021000 02012KT P6SM VCTS SCT008CB OVC015
     FM021600 36015G25KT P6SM VCSH BKN018 OVC050
     FM022000 01013KT P6SM BKN050
     FM030000 36014KT P6SM BKN100=



000
FTUS44 KHGX 020712 AAA
TAFCXO
TAF AMD
KCXO 020712Z 0207/0306 13006KT P6SM VCTS OVC018CB
      TEMPO 0207/0209 VRB15G25KT 4SM TSRA BR BKN007CB
     FM021600 34012G20KT P6SM VCSH BKN018 OVC050
     FM022000 34010KT P6SM BKN050
     FM030000 34005KT P6SM SCT250=



000
FTUS44 KHGX 020711 AAA
TAFUTS
TAF AMD
KUTS 020711Z 0207/0306 VRB04KT P6SM VCTS OVC017CB
      TEMPO 0207/0209 VRB15G25KT 4SM TSRA BR BKN007CB
     FM021300 36012G21KT P6SM VCSH BKN018 OVC050
     FM021900 36012KT P6SM BKN050
     FM030000 VRB03KT P6SM SCT250=



000
FTUS44 KHGX 020544 CCA
TAFLBX
TAF COR
KLBX 020544Z 0206/0306 10008KT P6SM VCSH OVC025
      TEMPO 0206/0208 5SM SHRA BR BKN015
     FM020800 02012KT P6SM VCTS SCT008CB OVC015
     FM021600 36012G20KT P6SM VCSH BKN018 OVC050
     FM022000 35015KT P6SM BKN050
     FM030000 36008KT P6SM BKN100=



000
FTUS44 KHGX 020544 CCA
TAFLBX
TAF COR
KLBX 020544Z 0206/0306 10008KT P6SM VCSH OVC025
      TEMPO 0206/0208 5SM SHRA BR BKN015
     FM020800 02012KT P6SM VCTS SCT008CB OVC015
     FM021600 36012G20KT P6SM VCSH BKN018 OVC050
     FM022000 35015KT P6SM BKN050
     FM030000 36008KT P6SM BKN100=



000
FTUS44 KHGX 020541 CCA
TAFGLS
TAF COR
KGLS 020541Z 0206/0306 11012KT P6SM VCSH SCT020 OVC035
      TEMPO 0206/0207 VRB20G30KT 1SM +TSRA BR BKN010CB
     FM021000 02012KT P6SM VCTS SCT008CB OVC015
     FM021600 36015G25KT P6SM VCSH BKN018 OVC050
     FM022000 01013KT P6SM BKN050
     FM030000 36014KT P6SM BKN100=



000
FTUS44 KHGX 020522
TAFIAH
TAF
KIAH 020522Z 0206/0312 05007KT P6SM VCSH BKN015 BKN030
     FM020800 02012KT P6SM VCTS SCT008CB OVC015
     FM021600 36012G20KT P6SM VCSH BKN018 OVC050
     FM022000 35013KT P6SM BKN050
     FM030100 01007KT P6SM BKN100=



000
FTUS44 KHGX 020522
TAFIAH
TAF
KIAH 020522Z 0206/0312 05007KT P6SM VCSH BKN015 BKN030
     FM020800 02012KT P6SM VCTS SCT008CB OVC015
     FM021600 36012G20KT P6SM VCSH BKN018 OVC050
     FM022000 35013KT P6SM BKN050
     FM030100 01007KT P6SM BKN100=



000
FTUS44 KHGX 020522
TAFLBX
TAF
KLBX 020522Z 0206/0306 10008KT P6SM VCSH BKN015 OVC025
     FM020800 02012KT P6SM VCTS SCT008CB OVC015
     FM021600 36012G20KT P6SM VCSH BKN018 OVC050
     FM022000 35015KT P6SM BKN050
     FM030000 36008KT P6SM BKN100=



000
FTUS44 KHGX 020522
TAFSGR
TAF
KSGR 020522Z 0206/0306 09005KT P6SM VCSH BKN015 OVC028
     FM020800 02012KT P6SM VCTS SCT008CB OVC015
     FM021600 36012G20KT P6SM VCSH BKN018 OVC050
     FM022000 35015KT P6SM BKN050
     FM030000 35010KT P6SM SCT250=



000
FTUS44 KHGX 020522
TAFCXO
TAF
KCXO 020522Z 0206/0306 09005KT P6SM VCSH BKN015 OVC025
     FM020900 33012KT 3SM BR VCTS BKN008CB BKN015
     FM021600 34012G20KT P6SM VCSH BKN018 OVC050
     FM022000 34010KT P6SM BKN050
     FM030000 34005KT P6SM SCT250=



000
FTUS44 KHGX 020522
TAFUTS
TAF
KUTS 020522Z 0206/0306 08005KT P6SM VCSH BKN015 BKN040
     FM020900 01010G19KT 4SM BR VCTS BKN007CB BKN015
     FM021300 36012G21KT P6SM VCSH BKN018 OVC050
     FM021900 36012KT P6SM BKN050
     FM030000 VRB03KT P6SM SCT250=



000
FTUS44 KHGX 020522
TAFGLS
TAF
KGLS 020522Z 0206/0306 11012KT P6SM VCSH SCT020 OVC035
     FM021000 02012KT P6SM VCTS SCT008CB OVC015
     FM021600 36015G25KT P6SM VCSH BKN018 OVC050
     FM022000 01013KT P6SM BKN050
     FM030000 36014KT P6SM BKN100=



000
FTUS44 KHGX 020522
TAFCLL
TAF
KCLL 020522Z 0206/0306 01010KT P6SM -RA VCTS BKN015CB BKN035
     FM020800 01011G19KT 4SM BR VCTS SCT008CB BKN015
     FM021300 36014G23KT P6SM VCSH BKN018 OVC050
     FM021900 36012KT P6SM BKN050
     FM030000 35008KT P6SM SCT250=



000
FTUS44 KHGX 020522
TAFHOU
TAF
KHOU 020522Z 0206/0306 09006KT P6SM VCSH SCT015 OVC028
      TEMPO 0206/0208 BKN015
     FM020800 02012KT P6SM VCTS SCT008CB OVC015
     FM021600 36012G20KT P6SM VCSH BKN018 OVC050
     FM022000 35015KT P6SM BKN050
     FM030000 35012KT P6SM BKN100=



000
FTUS44 KHGX 020522
TAFLBX
TAF
KLBX 020522Z 0206/0306 10008KT P6SM VCSH BKN015 OVC025
     FM020800 02012KT P6SM VCTS SCT008CB OVC015
     FM021600 36012G20KT P6SM VCSH BKN018 OVC050
     FM022000 35015KT P6SM BKN050
     FM030000 36008KT P6SM BKN100=



000
FTUS44 KHGX 020522
TAFUTS
TAF
KUTS 020522Z 0206/0306 08005KT P6SM VCSH BKN015 BKN040
     FM020900 01010G19KT 4SM BR VCTS BKN007CB BKN015
     FM021300 36012G21KT P6SM VCSH BKN018 OVC050
     FM021900 36012KT P6SM BKN050
     FM030000 VRB03KT P6SM SCT250=



000
FTUS44 KHGX 020522
TAFHOU
TAF
KHOU 020522Z 0206/0306 09006KT P6SM VCSH SCT015 OVC028
      TEMPO 0206/0208 BKN015
     FM020800 02012KT P6SM VCTS SCT008CB OVC015
     FM021600 36012G20KT P6SM VCSH BKN018 OVC050
     FM022000 35015KT P6SM BKN050
     FM030000 35012KT P6SM BKN100=



000
FTUS44 KHGX 020522
TAFCXO
TAF
KCXO 020522Z 0206/0306 09005KT P6SM VCSH BKN015 OVC025
     FM020900 33012KT 3SM BR VCTS BKN008CB BKN015
     FM021600 34012G20KT P6SM VCSH BKN018 OVC050
     FM022000 34010KT P6SM BKN050
     FM030000 34005KT P6SM SCT250=



000
FTUS44 KHGX 020522
TAFSGR
TAF
KSGR 020522Z 0206/0306 09005KT P6SM VCSH BKN015 OVC028
     FM020800 02012KT P6SM VCTS SCT008CB OVC015
     FM021600 36012G20KT P6SM VCSH BKN018 OVC050
     FM022000 35015KT P6SM BKN050
     FM030000 35010KT P6SM SCT250=



000
FTUS44 KHGX 020522
TAFCLL
TAF
KCLL 020522Z 0206/0306 01010KT P6SM -RA VCTS BKN015CB BKN035
     FM020800 01011G19KT 4SM BR VCTS SCT008CB BKN015
     FM021300 36014G23KT P6SM VCSH BKN018 OVC050
     FM021900 36012KT P6SM BKN050
     FM030000 35008KT P6SM SCT250=



000
FTUS44 KHGX 020522
TAFGLS
TAF
KGLS 020522Z 0206/0306 11012KT P6SM VCSH SCT020 OVC035
     FM021000 02012KT P6SM VCTS SCT008CB OVC015
     FM021600 36015G25KT P6SM VCSH BKN018 OVC050
     FM022000 01013KT P6SM BKN050
     FM030000 36014KT P6SM BKN100=



000
FTUS44 KHGX 020305 AAA
TAFGLS
TAF AMD
KGLS 020305Z 0203/0224 10010KT P6SM OVC025
     FM020400 11012KT 4SM BR BKN015 BKN035
     FM021000 02012KT P6SM VCTS SCT008CB OVC015
     FM021600 36015G25KT P6SM VCSH BKN018 OVC050
     FM022000 01013KT P6SM BKN050=



000
FTUS44 KHGX 020305 AAA
TAFHOU
TAF AMD
KHOU 020305Z 0203/0224 10005KT P6SM BKN025 BKN040
     FM020400 07008KT P6SM BKN015 BKN050
     FM020800 02012KT P6SM VCTS SCT008CB OVC015
     FM021600 36012G20KT P6SM VCSH BKN018 OVC050
     FM022000 35015KT P6SM BKN050=



000
FTUS44 KHGX 020305 AAA
TAFHOU
TAF AMD
KHOU 020305Z 0203/0224 10005KT P6SM BKN025 BKN040
     FM020400 07008KT P6SM BKN015 BKN050
     FM020800 02012KT P6SM VCTS SCT008CB OVC015
     FM021600 36012G20KT P6SM VCSH BKN018 OVC050
     FM022000 35015KT P6SM BKN050=



000
FTUS44 KHGX 020304 AAA
TAFIAH
TAF AMD
KIAH 020304Z 0203/0306 11005KT P6SM SCT012 BKN025 OVC250
     FM020400 07008KT P6SM BKN015 BKN050
     FM020800 02012KT P6SM VCTS SCT008CB OVC015
     FM021600 36012G20KT P6SM VCSH BKN018 OVC050
     FM022000 35015KT P6SM BKN050
     FM030100 01007KT P6SM BKN100=



000
FTUS44 KHGX 020104 AAA
TAFSGR
TAF AMD
KSGR 020104Z 0201/0224 10008KT P6SM VCSH SCT007 OVC010
     FM020400 07008KT P6SM BKN015 BKN050
     FM020800 02012KT P6SM VCTS SCT008CB OVC015
     FM021600 36012G20KT P6SM VCSH BKN018 OVC050
     FM022000 35015KT P6SM BKN050=



000
FTUS44 KHGX 020104 AAA
TAFLBX
TAF AMD
KLBX 020104Z 0201/0224 09008KT P6SM VCSH OVC008
     FM020400 07008KT P6SM BKN015 BKN050
     FM020800 02012KT P6SM VCTS SCT008CB OVC015
     FM021600 36012G20KT P6SM VCSH BKN018 OVC050
     FM022000 35015KT P6SM BKN050=



000
FTUS44 KHGX 020103 AAA
TAFCXO
TAF AMD
KCXO 020103Z 0201/0224 12010KT P6SM -RA VCTS BKN025CB OVC250
     FM020400 01008KT P6SM BKN015 BKN050
     FM020800 33012KT 3SM BR VCTS BKN008CB BKN015
     FM021600 34012G20KT P6SM VCSH BKN018 OVC050
     FM022000 34010KT P6SM BKN050=



000
FTUS44 KHGX 020103 AAA
TAFCXO
TAF AMD
KCXO 020103Z 0201/0224 12010KT P6SM -RA VCTS BKN025CB OVC250
     FM020400 01008KT P6SM BKN015 BKN050
     FM020800 33012KT 3SM BR VCTS BKN008CB BKN015
     FM021600 34012G20KT P6SM VCSH BKN018 OVC050
     FM022000 34010KT P6SM BKN050=



000
FTUS44 KHGX 020102 AAA
TAFUTS
TAF AMD
KUTS 020102Z 0201/0224 01005KT P6SM OVC028
     FM020400 01007KT P6SM VCSH BKN015 BKN040
     FM020700 01011G19KT 4SM BR VCTS BKN007CB BKN015
     FM021300 36014G23KT P6SM VCSH BKN018 OVC050
     FM021900 36012KT P6SM BKN050=



000
FTUS44 KHGX 020102 AAA
TAFUTS
TAF AMD
KUTS 020102Z 0201/0224 01005KT P6SM OVC028
     FM020400 01007KT P6SM VCSH BKN015 BKN040
     FM020700 01011G19KT 4SM BR VCTS BKN007CB BKN015
     FM021300 36014G23KT P6SM VCSH BKN018 OVC050
     FM021900 36012KT P6SM BKN050=



000
FTUS44 KHGX 012331
TAFHOU
TAF
KHOU 012331Z 0200/0224 10012KT P6SM VCSH BKN007 OVC012
     FM020400 07008KT P6SM BKN015 BKN050
     FM020800 02012KT P6SM VCTS SCT008CB OVC015
     FM021600 36012G20KT P6SM VCSH BKN018 OVC050
     FM022000 35015KT P6SM BKN050=



000
FTUS44 KHGX 012331
TAFLBX
TAF
KLBX 012331Z 0200/0224 09008KT P6SM VCSH SCT007 OVC018
     FM020400 07008KT P6SM BKN015 BKN050
     FM020800 02012KT P6SM VCTS SCT008CB OVC015
     FM021600 36012G20KT P6SM VCSH BKN018 OVC050
     FM022000 35015KT P6SM BKN050=



000
FTUS44 KHGX 012331
TAFSGR
TAF
KSGR 012331Z 0200/0224 10012KT P6SM VCSH SCT007 OVC015
      TEMPO 0200/0203 BKN007
     FM020400 07008KT P6SM BKN015 BKN050
     FM020800 02012KT P6SM VCTS SCT008CB OVC015
     FM021600 36012G20KT P6SM VCSH BKN018 OVC050
     FM022000 35015KT P6SM BKN050=



000
FTUS44 KHGX 012331
TAFCLL
TAF
KCLL 012331Z 0200/0224 01012KT P6SM SCT040
     FM020400 01010KT P6SM VCSH BKN015 BKN040
     FM020700 01011G19KT 4SM BR VCTS SCT008CB BKN015
     FM021300 36014G23KT P6SM VCSH BKN018 OVC050
     FM021900 36012KT P6SM BKN050=



000
FTUS44 KHGX 012331
TAFUTS
TAF
KUTS 012331Z 0200/0224 01008KT P6SM SCT040
     FM020400 01010KT P6SM VCSH BKN015 BKN040
     FM020700 01011G19KT 4SM BR VCTS BKN007CB BKN015
     FM021300 36014G23KT P6SM VCSH BKN018 OVC050
     FM021900 36012KT P6SM BKN050=



000
FTUS44 KHGX 012331
TAFGLS
TAF
KGLS 012331Z 0200/0224 09015G25KT P6SM VCSH SCT007 OVC012
     FM020400 11012KT 4SM BR BKN015 BKN035
     FM021000 02012KT P6SM VCTS SCT008CB OVC015
     FM021600 36015G25KT P6SM VCSH BKN018 OVC050
     FM022000 01013KT P6SM BKN050=



000
FTUS44 KHGX 012331
TAFIAH
TAF
KIAH 012331Z 0200/0306 11013KT P6SM VCTS SCT007 BKN018CB OVC250
      TEMPO 0200/0201 35015G25KT 3SM TSRA BR BKN007 BKN015CB
     FM020400 07008KT P6SM BKN015 BKN050
     FM020800 02012KT P6SM VCTS SCT008CB OVC015
     FM021600 36012G20KT P6SM VCSH BKN018 OVC050
     FM022000 35015KT P6SM BKN050
     FM030100 01007KT P6SM BKN100=



000
FTUS44 KHGX 012331
TAFCXO
TAF
KCXO 012331Z 0200/0224 02010KT P6SM VCTS BKN035CB OVC250
     FM020400 01008KT P6SM BKN015 BKN050
     FM020800 33012KT 3SM BR VCTS BKN008CB BKN015
     FM021600 34012G20KT P6SM VCSH BKN018 OVC050
     FM022000 34010KT P6SM BKN050=



000
FTUS44 KHGX 012050 AAB
TAFGLS
TAF AMD
KGLS 012050Z 0121/0218 12007KT 4SM BR VCTS BKN010 BKN030CB OVC045
     FM020200 11008KT P6SM VCSH OVC015
     FM020900 03010KT P6SM VCTS SCT009 BKN025CB
     FM021700 36015G21KT P6SM VCTS BKN007 BKN020CB=



000
FTUS44 KHGX 012049 AAC
TAFHOU
TAF AMD
KHOU 012049Z 0121/0218 09010KT P6SM VCTS FEW021 SCT028 OVC035CB
     FM020100 10006KT P6SM BKN035
     FM020400 09010KT P6SM SCT007 BKN015
     FM021000 01011G18KT P6SM VCTS SCT009 BKN025CB=



000
FTUS44 KHGX 012049 AAC
TAFCXO
TAF AMD
KCXO 012049Z 0121/0218 36007KT P6SM VCTS FEW027 SCT035CB BKN080
     FM020200 35004KT P6SM BKN030
     FM020600 35008KT P6SM VCSH BKN025
     FM021000 34010G17KT 5SM BR VCTS SCT009 BKN025CB
     FM021500 35009KT P6SM SCT020 BKN050=



000
FTUS44 KHGX 012049 AAC
TAFCXO
TAF AMD
KCXO 012049Z 0121/0218 36007KT P6SM VCTS FEW027 SCT035CB BKN080
     FM020200 35004KT P6SM BKN030
     FM020600 35008KT P6SM VCSH BKN025
     FM021000 34010G17KT 5SM BR VCTS SCT009 BKN025CB
     FM021500 35009KT P6SM SCT020 BKN050=



000
FTUS44 KHGX 012049 AAC
TAFSGR
TAF AMD
KSGR 012049Z 0121/0218 07009KT P6SM VCTS SCT029 OVC035CB
     FM020100 10006KT P6SM BKN030
     FM020400 09010KT P6SM BKN015
     FM021000 01011G18KT P6SM VCTS SCT009 BKN025CB=



000
FTUS44 KHGX 012048 AAB
TAFIAH
TAF AMD
KIAH 012048Z 0121/0224 07009KT P6SM VCTS SCT027 BKN040CB OVC060
     FM020100 07006KT P6SM SCT025 BKN040
     FM020400 11007KT P6SM BKN015
     FM021000 01011G18KT P6SM VCTS SCT009CB BKN025
     FM022100 01015KT P6SM BKN050=



000
FTUS44 KHGX 012024 AAA
TAFCLL
TAF AMD
KCLL 012024Z 0120/0218 36012G19KT P6SM SCT045
     FM020300 36010KT P6SM VCTS BKN030CB
     FM021300 01016G22KT P6SM OVC030=



000
FTUS44 KHGX 012018 AAB
TAFUTS
TAF AMD
KUTS 012018Z 0120/0218 36006KT P6SM OVC027
     FM020300 VRB04KT P6SM BKN030
     FM020700 31005KT P6SM VCTS BKN025CB
     FM021300 36006KT P6SM OVC030=



000
FTUS44 KHGX 012017 AAA
TAFGLS
TAF AMD
KGLS 012017Z 0120/0218 15007KT 4SM BR VCTS SCT010 SCT027CB OVC040
     FM020200 11008KT P6SM VCSH OVC015
     FM020900 03010KT P6SM VCTS SCT009 BKN025CB
     FM021700 36015G21KT P6SM VCTS BKN007 BKN020CB=



000
FTUS44 KHGX 012016 AAB
TAFLBX
TAF AMD
KLBX 012016Z 0120/0218 09006KT P6SM VCTS SCT017 BKN029CB OVC040
     FM020100 VRB04KT P6SM OVC025
     FM020500 VRB04KT P6SM VCSH SCT007 BKN015
     FM021000 03010KT 4SM BR VCTS BKN025CB
     FM021700 01013G19KT P6SM VCTS SCT007 BKN020CB=



000
FTUS44 KHGX 012016 AAB
TAFLBX
TAF AMD
KLBX 012016Z 0120/0218 09006KT P6SM VCTS SCT017 BKN029CB OVC040
     FM020100 VRB04KT P6SM OVC025
     FM020500 VRB04KT P6SM VCSH SCT007 BKN015
     FM021000 03010KT 4SM BR VCTS BKN025CB
     FM021700 01013G19KT P6SM VCTS SCT007 BKN020CB=



000
FTUS44 KHGX 012015 AAB
TAFSGR
TAF AMD
KSGR 012015Z 0120/0218 04008KT P6SM VCTS BKN026CB BKN030
     FM020100 10006KT P6SM BKN030
     FM020400 09010KT P6SM BKN015
     FM021000 01011G18KT P6SM VCTS SCT009 BKN025CB=



000
FTUS44 KHGX 012014 AAB
TAFCXO
TAF AMD
KCXO 012014Z 0120/0218 VRB05KT P6SM VCTS OVC029CB
     FM020200 35004KT P6SM BKN030
     FM020600 35008KT P6SM VCSH BKN025
     FM021000 34010G17KT 5SM BR VCTS SCT009 BKN025CB
     FM021500 35009KT P6SM SCT020 BKN050=



000
FTUS44 KHGX 011916 AAB
TAFHOU
TAF AMD
KHOU 011916Z 0119/0218 10004KT P6SM VCTS BKN020 OVC035CB
     FM020100 10006KT P6SM BKN035
     FM020400 09010KT P6SM SCT007 BKN015
     FM021000 01011G18KT P6SM VCTS SCT009 BKN025CB=



000
FTUS44 KHGX 011839 AAA
TAFLBX
TAF AMD
KLBX 011839Z 0119/0218 02006KT P6SM VCTS BKN012 OVC019CB
     FM020100 VRB04KT P6SM OVC025
     FM020500 VRB04KT P6SM VCSH SCT007 BKN015
     FM021000 03010KT 4SM BR VCTS BKN025CB
     FM021700 01013G19KT P6SM VCTS SCT007 BKN020CB=



000
FTUS44 KHGX 011821 AAA
TAFUTS
TAF AMD
KUTS 011821Z 0118/0218 VRB04KT P6SM BKN025 BKN060
     FM012000 VRB03KT P6SM VCTS SCT030 BKN040CB
     FM020300 VRB04KT P6SM BKN030
     FM020700 31005KT P6SM VCSH BKN025
     FM021300 36006KT P6SM OVC030=



000
FTUS44 KHGX 011821 AAA
TAFUTS
TAF AMD
KUTS 011821Z 0118/0218 VRB04KT P6SM BKN025 BKN060
     FM012000 VRB03KT P6SM VCTS SCT030 BKN040CB
     FM020300 VRB04KT P6SM BKN030
     FM020700 31005KT P6SM VCSH BKN025
     FM021300 36006KT P6SM OVC030=



000
FTUS44 KHGX 011820 AAA
TAFCXO
TAF AMD
KCXO 011820Z 0118/0218 03008KT P6SM VCSH BKN025
     FM012000 11005KT P6SM VCTS SCT030CB BKN040CB
     FM020200 35004KT P6SM BKN040
     FM020600 35008KT P6SM VCSH BKN025
     FM021000 34010G17KT 5SM BR VCTS SCT009 BKN025CB
     FM021500 35009KT P6SM SCT020 BKN050=



000
FTUS44 KHGX 011815 AAA
TAFSGR
TAF AMD
KSGR 011815Z 0118/0218 06006KT P6SM VCTS OVC035CB
     FM020100 10006KT P6SM BKN035
     FM020400 09010KT P6SM BKN015
     FM021000 01011G18KT P6SM VCTS SCT009 BKN025CB=



000
FTUS44 KHGX 011814 AAA
TAFIAH
TAF AMD
KIAH 011814Z 0118/0224 10008KT P6SM VCTS BKN024CB BKN035 OVC045
     FM020100 07006KT P6SM SCT025 BKN040
     FM020400 11007KT P6SM BKN015
     FM021000 01011G18KT P6SM VCTS SCT009CB BKN025
     FM022100 01015KT P6SM BKN050=



000
FTUS44 KHGX 011742 AAA
TAFHOU
TAF AMD
KHOU 011742Z 0118/0218 07006KT P6SM VCTS BKN017 OVC030CB
     FM020100 10006KT P6SM BKN035
     FM020400 09010KT P6SM SCT007 BKN015
     FM021000 01011G18KT P6SM VCTS SCT009 BKN025CB=



000
FTUS44 KHGX 011742 AAA
TAFHOU
TAF AMD
KHOU 011742Z 0118/0218 07006KT P6SM VCTS BKN017 OVC030CB
     FM020100 10006KT P6SM BKN035
     FM020400 09010KT P6SM SCT007 BKN015
     FM021000 01011G18KT P6SM VCTS SCT009 BKN025CB=



000
FTUS44 KHGX 011741
TAFSGR
TAF
KSGR 011741Z 0118/0218 06006KT P6SM VCTS BKN029CB OVC040
     FM020100 10006KT P6SM BKN035
     FM020400 09010KT P6SM BKN015
     FM021000 01011G18KT P6SM VCTS SCT009 BKN025CB=



000
FTUS44 KHGX 011741
TAFIAH
TAF
KIAH 011741Z 0118/0224 04007KT P6SM VCTS SCT035CB SCT050 BKN070
     FM020100 07006KT P6SM BKN040
     FM020400 11007KT P6SM BKN015
     FM021000 01011G18KT P6SM VCTS SCT009CB BKN025
     FM022100 01015KT P6SM BKN050=



000
FTUS44 KHGX 011741
TAFUTS
TAF
KUTS 011741Z 0118/0218 VRB04KT P6SM SCT060
     FM012000 VRB03KT P6SM VCTS BKN040CB
     FM020300 VRB04KT P6SM BKN030
     FM020700 31005KT P6SM VCSH BKN025
     FM021300 36006KT P6SM OVC030=



000
FTUS44 KHGX 011741
TAFHOU
TAF
KHOU 011741Z 0118/0218 04010KT P6SM VCTS SCT015 BKN030CB OVC045
     FM020100 10006KT P6SM BKN035
     FM020400 09010KT P6SM SCT007 BKN015
     FM021000 01011G18KT P6SM VCTS SCT009 BKN025CB=



000
FTUS44 KHGX 011741
TAFCXO
TAF
KCXO 011741Z 0118/0218 VRB03KT P6SM FEW023 SCT040
     FM011900 11005KT P6SM VCTS BKN040CB
     FM020200 35004KT P6SM BKN040
     FM020600 35008KT P6SM VCSH BKN025
     FM021000 34010G17KT 5SM BR VCTS SCT009 BKN025CB
     FM021500 35009KT P6SM SCT020 BKN050=



000
FTUS44 KHGX 011741
TAFLBX
TAF
KLBX 011741Z 0118/0218 03008KT 6SM -RA BR VCTS BKN008 OVC014CB
     FM020100 VRB04KT P6SM OVC025
     FM020500 VRB04KT P6SM VCSH SCT007 BKN015
     FM021000 03010KT 4SM BR VCTS BKN025CB
     FM021700 01013G19KT P6SM VCTS SCT007 BKN020CB=



000
FTUS44 KHGX 011741
TAFCLL
TAF
KCLL 011741Z 0118/0218 01009KT P6SM BKN060
     FM012000 06008KT P6SM VCTS BKN040CB
     FM020300 36010KT P6SM BKN030
     FM020700 35007KT P6SM VCSH BKN025
     FM021300 01016G22KT P6SM OVC030=



000
FTUS44 KHGX 011741
TAFGLS
TAF
KGLS 011741Z 0118/0218 15008KT 4SM BR BKN008 OVC019
     FM012200 12008KT P6SM SCT010 BKN025
     FM020200 11008KT P6SM VCSH OVC015
     FM020900 03010KT P6SM VCTS SCT009 BKN025CB
     FM021700 36015G21KT P6SM VCTS BKN007 BKN020CB=



000
FTUS44 KHGX 011741
TAFGLS
TAF
KGLS 011741Z 0118/0218 15008KT 4SM BR BKN008 OVC019
     FM012200 12008KT P6SM SCT010 BKN025
     FM020200 11008KT P6SM VCSH OVC015
     FM020900 03010KT P6SM VCTS SCT009 BKN025CB
     FM021700 36015G21KT P6SM VCTS BKN007 BKN020CB=



000
FTUS44 KHGX 011707 AAC
TAFGLS
TAF AMD
KGLS 011707Z 0117/0212 15008KT P6SM SCT008 OVC019
     FM012200 12008KT P6SM BKN025
     FM020200 11008KT P6SM VCSH OVC015
     FM020800 03010KT P6SM VCTS BKN025CB=



000
FTUS44 KHGX 011602 AAB
TAFGLS
TAF AMD
KGLS 011602Z 0116/0212 18011KT 3SM BR VCSH BKN007 OVC020
     FM012200 12008KT P6SM BKN025
     FM020200 11008KT P6SM VCSH OVC015
     FM020800 03010KT P6SM VCTS BKN025CB=



000
FTUS44 KHGX 011559 AAB
TAFCLL
TAF AMD
KCLL 011559Z 0116/0212 35012KT P6SM FEW060
     FM012000 06008KT P6SM VCTS BKN040CB
     FM020300 36010KT P6SM BKN040
     FM020700 35007KT P6SM VCSH BKN025=



000
FTUS44 KHGX 011559 AAB
TAFCLL
TAF AMD
KCLL 011559Z 0116/0212 35012KT P6SM FEW060
     FM012000 06008KT P6SM VCTS BKN040CB
     FM020300 36010KT P6SM BKN040
     FM020700 35007KT P6SM VCSH BKN025=



000
FTUS44 KHGX 011545 AAC
TAFSGR
TAF AMD
KSGR 011545Z 0116/0212 06008KT P6SM VCSH BKN030 BKN035
     FM011800 12008KT P6SM VCTS BKN040CB
     FM020100 10006KT P6SM BKN025
     FM020300 09010KT P6SM BKN015
     FM020900 06010KT P6SM VCTS BKN025CB=



000
FTUS44 KHGX 011511 AAC
TAFLBX
TAF AMD
KLBX 011511Z 0115/0212 12003KT 6SM BR VCSH OVC009
     FM011800 11008KT P6SM VCTS BKN040CB
     FM020100 09004KT P6SM OVC025
     FM020300 08010KT P6SM VCSH BKN015
     FM020800 03010KT P6SM VCTS BKN025CB=



000
FTUS44 KHGX 011511 AAC
TAFLBX
TAF AMD
KLBX 011511Z 0115/0212 12003KT 6SM BR VCSH OVC009
     FM011800 11008KT P6SM VCTS BKN040CB
     FM020100 09004KT P6SM OVC025
     FM020300 08010KT P6SM VCSH BKN015
     FM020800 03010KT P6SM VCTS BKN025CB=



000
FTUS44 KHGX 011510 AAA
TAFUTS
TAF AMD
KUTS 011510Z 0115/0212 01005KT P6SM OVC050
     FM012100 06003KT P6SM VCTS BKN040CB
     FM020400 VRB03KT P6SM BKN040
     FM020700 35007KT P6SM VCSH BKN025=



000
FTUS44 KHGX 011510 AAA
TAFCLL
TAF AMD
KCLL 011510Z 0115/0212 04012KT P6SM BKN060
     FM012000 06008KT P6SM VCTS BKN040CB
     FM020300 36010KT P6SM BKN040
     FM020700 35007KT P6SM VCSH BKN025=



000
FTUS44 KHGX 011504 AAA
TAFCXO
TAF AMD
KCXO 011504Z 0115/0212 VRB03KT P6SM VCSH FEW040 BKN070
     FM011900 11005KT P6SM VCTS BKN040CB
     FM020200 02004KT P6SM BKN040
     FM020600 35007KT P6SM VCSH BKN025=



000
FTUS44 KHGX 011415 AAB
TAFSGR
TAF AMD
KSGR 011415Z 0114/0212 05010KT P6SM VCSH OVC024
     FM011800 12008KT P6SM VCTS BKN040CB
     FM020100 10006KT P6SM BKN025
     FM020300 09010KT P6SM BKN015
     FM020900 06010KT P6SM VCTS BKN025CB=



000
FTUS44 KHGX 011415 AAB
TAFLBX
TAF AMD
KLBX 011415Z 0114/0212 16005KT 5SM BR VCSH BKN006 BKN014 OVC030
     FM011800 11008KT P6SM VCTS BKN040CB
     FM020100 09004KT P6SM OVC025
     FM020300 08010KT P6SM VCSH BKN015
     FM020800 03010KT P6SM VCTS BKN025CB=



000
FTUS44 KHGX 011414 AAB
TAFHOU
TAF AMD
KHOU 011414Z 0114/0212 04008KT P6SM VCSH FEW012 OVC022
     FM011700 12008KT P6SM VCTS BKN035CB
     FM020100 10006KT P6SM BKN025
     FM020400 09010KT P6SM BKN015
     FM020900 01010KT P6SM VCTS BKN025CB=



    US Dept of Commerce
    National Oceanic and Atmospheric Administration
    National Weather Service
    1325 East West Highway
    Silver Spring, MD 20910
    Page Author: NWS Internet Services Team
Disclaimer
Information Quality
Credits
Glossary
Privacy Policy
Freedom of Information Act (FOIA)
About Us
Career Opportunities